sensor_id;sensor_type;location;lat;lon;timestamp;pressure;altitude;pressure_sealevel;temperature;humidity
36234;BME280;43467;50.890;5.982;2023-12-28T00:01:22;99686.50;;;10.30;75.39
36234;BME280;43467;50.890;5.982;2023-12-28T00:03:49;99696.13;;;10.31;74.91
36234;BME280;43467;50.890;5.982;2023-12-28T00:06:14;99696.75;;;10.36;74.30
36234;BME280;43467;50.890;5.982;2023-12-28T00:08:40;99699.34;;;10.38;74.16
36234;BME280;43467;50.890;5.982;2023-12-28T00:11:05;99692.00;;;10.43;73.87
36234;BME280;43467;50.890;5.982;2023-12-28T00:13:31;99692.88;;;10.43;73.76
36234;BME280;43467;50.890;5.982;2023-12-28T00:15:56;99692.00;;;10.43;73.93
36234;BME280;43467;50.890;5.982;2023-12-28T00:18:22;99692.94;;;10.42;73.54
36234;BME280;43467;50.890;5.982;2023-12-28T00:20:47;99691.31;;;10.39;73.26
36234;BME280;43467;50.890;5.982;2023-12-28T00:23:12;99706.00;;;10.45;73.17
36234;BME280;43467;50.890;5.982;2023-12-28T00:25:38;99706.34;;;10.39;73.40
36234;BME280;43467;50.890;5.982;2023-12-28T00:28:04;99698.31;;;10.40;72.96
36234;BME280;43467;50.890;5.982;2023-12-28T00:30:29;99711.06;;;10.49;72.91
36234;BME280;43467;50.890;5.982;2023-12-28T00:32:55;99703.97;;;10.50;72.98
36234;BME280;43467;50.890;5.982;2023-12-28T00:35:20;99701.25;;;10.51;73.00
36234;BME280;43467;50.890;5.982;2023-12-28T00:37:46;99712.16;;;10.45;73.25
36234;BME280;43467;50.890;5.982;2023-12-28T00:40:11;99703.97;;;10.50;73.48
36234;BME280;43467;50.890;5.982;2023-12-28T00:42:37;99699.44;;;10.52;73.45
36234;BME280;43467;50.890;5.982;2023-12-28T00:45:02;99705.00;;;10.47;73.65
36234;BME280;43467;50.890;5.982;2023-12-28T00:47:28;99698.69;;;10.50;73.96
36234;BME280;43467;50.890;5.982;2023-12-28T00:49:54;99702.50;;;10.44;74.65
36234;BME280;43467;50.890;5.982;2023-12-28T00:52:19;99710.75;;;10.55;74.54
36234;BME280;43467;50.890;5.982;2023-12-28T00:54:44;99701.69;;;10.59;74.55
36234;BME280;43467;50.890;5.982;2023-12-28T00:57:10;99713.38;;;10.55;75.24
36234;BME280;43467;50.890;5.982;2023-12-28T00:59:36;99719.19;;;10.62;75.19
36234;BME280;43467;50.890;5.982;2023-12-28T01:02:01;99704.66;;;10.53;75.52
36234;BME280;43467;50.890;5.982;2023-12-28T01:04:27;99727.88;;;10.64;75.82
36234;BME280;43467;50.890;5.982;2023-12-28T01:06:52;99721.66;;;10.65;76.08
36234;BME280;43467;50.890;5.982;2023-12-28T01:09:18;99707.22;;;10.55;76.75
36234;BME280;43467;50.890;5.982;2023-12-28T01:11:43;99717.66;;;10.58;77.29
36234;BME280;43467;50.890;5.982;2023-12-28T01:14:09;99705.44;;;10.55;77.56
36234;BME280;43467;50.890;5.982;2023-12-28T01:16:34;99717.56;;;10.59;77.78
36234;BME280;43467;50.890;5.982;2023-12-28T01:19:01;99711.56;;;10.56;78.46
36234;BME280;43467;50.890;5.982;2023-12-28T01:21:26;99710.75;;;10.55;78.54
36234;BME280;43467;50.890;5.982;2023-12-28T01:23:51;99714.50;;;10.51;78.85
36234;BME280;43467;50.890;5.982;2023-12-28T01:26:17;99719.59;;;10.54;78.67
36234;BME280;43467;50.890;5.982;2023-12-28T01:28:42;99714.22;;;10.56;79.22
36234;BME280;43467;50.890;5.982;2023-12-28T01:31:08;99721.03;;;10.60;79.16
36234;BME280;43467;50.890;5.982;2023-12-28T01:33:34;99724.13;;;10.52;79.23
36234;BME280;43467;50.890;5.982;2023-12-28T01:36:01;99724.22;;;10.51;79.51
36234;BME280;43467;50.890;5.982;2023-12-28T01:38:26;99724.97;;;10.53;79.94
36234;BME280;43467;50.890;5.982;2023-12-28T01:40:52;99730.44;;;10.50;79.77
36234;BME280;43467;50.890;5.982;2023-12-28T01:43:17;99740.34;;;10.46;80.21
36234;BME280;43467;50.890;5.982;2023-12-28T01:45:43;99734.34;;;10.43;80.46
36234;BME280;43467;50.890;5.982;2023-12-28T01:48:08;99737.25;;;10.38;80.71
36234;BME280;43467;50.890;5.982;2023-12-28T01:50:35;99749.53;;;10.39;81.23
36234;BME280;43467;50.890;5.982;2023-12-28T01:53:01;99757.47;;;10.39;81.32
36234;BME280;43467;50.890;5.982;2023-12-28T01:55:27;99745.81;;;10.43;81.00
36234;BME280;43467;50.890;5.982;2023-12-28T01:57:54;99748.28;;;10.46;80.86
36234;BME280;43467;50.890;5.982;2023-12-28T02:00:21;99742.28;;;10.43;81.24
36234;BME280;43467;50.890;5.982;2023-12-28T02:02:47;99742.84;;;10.32;81.89
36234;BME280;43467;50.890;5.982;2023-12-28T02:05:14;99734.66;;;10.37;81.51
36234;BME280;43467;50.890;5.982;2023-12-28T02:07:40;99738.41;;;10.33;81.80
36234;BME280;43467;50.890;5.982;2023-12-28T02:10:06;99741.66;;;10.38;81.72
36234;BME280;43467;50.890;5.982;2023-12-28T02:12:32;99729.78;;;10.29;82.21
36234;BME280;43467;50.890;5.982;2023-12-28T02:14:58;99738.47;;;10.31;82.19
36234;BME280;43467;50.890;5.982;2023-12-28T02:17:34;99743.63;;;10.34;82.05
36234;BME280;43467;50.890;5.982;2023-12-28T02:20:01;99738.63;;;10.28;82.46
36234;BME280;43467;50.890;5.982;2023-12-28T02:22:31;99742.84;;;10.32;82.04
36234;BME280;43467;50.890;5.982;2023-12-28T02:25:09;99748.13;;;10.32;81.96
36234;BME280;43467;50.890;5.982;2023-12-28T02:30:05;99736.09;;;10.27;82.58
36234;BME280;43467;50.890;5.982;2023-12-28T02:35:29;99735.38;;;10.23;82.83
36234;BME280;43467;50.890;5.982;2023-12-28T02:37:59;99740.44;;;10.27;82.69
36234;BME280;43467;50.890;5.982;2023-12-28T02:40:27;99729.59;;;10.32;82.49
36234;BME280;43467;50.890;5.982;2023-12-28T02:42:53;99744.72;;;10.30;82.55
36234;BME280;43467;50.890;5.982;2023-12-28T02:45:19;99744.72;;;10.30;82.34
36234;BME280;43467;50.890;5.982;2023-12-28T02:47:45;99744.97;;;10.25;82.90
36234;BME280;43467;50.890;5.982;2023-12-28T02:50:11;99732.72;;;10.23;83.02
36234;BME280;43467;50.890;5.982;2023-12-28T02:52:36;99745.88;;;10.24;83.06
36234;BME280;43467;50.890;5.982;2023-12-28T02:55:02;99734.28;;;10.27;83.11
36234;BME280;43467;50.890;5.982;2023-12-28T02:57:27;99735.13;;;10.27;82.79
36234;BME280;43467;50.890;5.982;2023-12-28T02:59:53;99722.75;;;10.28;83.00
36234;BME280;43467;50.890;5.982;2023-12-28T03:02:19;99722.16;;;10.23;83.07
36234;BME280;43467;50.890;5.982;2023-12-28T03:04:44;99727.59;;;10.20;82.99
36234;BME280;43467;50.890;5.982;2023-12-28T03:07:09;99722.31;;;10.20;83.26
36234;BME280;43467;50.890;5.982;2023-12-28T03:09:35;99717.81;;;10.22;83.12
36234;BME280;43467;50.890;5.982;2023-12-28T03:12:03;99719.66;;;10.20;83.05
36234;BME280;43467;50.890;5.982;2023-12-28T03:14:29;99732.59;;;10.26;82.67
36234;BME280;43467;50.890;5.982;2023-12-28T03:16:54;99731.63;;;10.27;82.69
36234;BME280;43467;50.890;5.982;2023-12-28T03:19:20;99727.44;;;10.23;82.94
36234;BME280;43467;50.890;5.982;2023-12-28T03:21:45;99739.56;;;10.27;82.73
36234;BME280;43467;50.890;5.982;2023-12-28T03:24:11;99727.13;;;10.29;82.61
36234;BME280;43467;50.890;5.982;2023-12-28T03:26:39;99741.75;;;10.19;83.25
36234;BME280;43467;50.890;5.982;2023-12-28T03:29:05;99734.44;;;10.24;82.98
36234;BME280;43467;50.890;5.982;2023-12-28T03:31:31;99730.41;;;10.17;83.33
36234;BME280;43467;50.890;5.982;2023-12-28T03:33:56;99729.38;;;10.19;83.64
36234;BME280;43467;50.890;5.982;2023-12-28T03:36:23;99722.31;;;10.20;83.22
36234;BME280;43467;50.890;5.982;2023-12-28T03:38:49;99716.97;;;10.21;83.49
36234;BME280;43467;50.890;5.982;2023-12-28T03:41:18;99709.31;;;10.15;83.56
36234;BME280;43467;50.890;5.982;2023-12-28T03:43:44;99700.47;;;10.16;83.19
36234;BME280;43467;50.890;5.982;2023-12-28T03:46:10;99698.50;;;10.20;83.42
36234;BME280;43467;50.890;5.982;2023-12-28T03:48:36;99713.28;;;10.24;83.16
36234;BME280;43467;50.890;5.982;2023-12-28T03:51:01;99719.03;;;10.15;83.41
36234;BME280;43467;50.890;5.982;2023-12-28T03:53:28;99719.03;;;10.15;83.21
36234;BME280;43467;50.890;5.982;2023-12-28T03:55:53;99690.88;;;10.14;83.07
36234;BME280;43467;50.890;5.982;2023-12-28T03:58:18;99697.81;;;10.16;83.45
36234;BME280;43467;50.890;5.982;2023-12-28T04:00:44;99700.47;;;10.16;83.12
36234;BME280;43467;50.890;5.982;2023-12-28T04:03:09;99697.75;;;10.18;83.19
36234;BME280;43467;50.890;5.982;2023-12-28T04:05:35;99700.66;;;10.12;83.33
36234;BME280;43467;50.890;5.982;2023-12-28T04:08:00;99701.44;;;10.14;83.31
36234;BME280;43467;50.890;5.982;2023-12-28T04:10:31;99702.31;;;10.14;83.17
36234;BME280;43467;50.890;5.982;2023-12-28T04:12:57;99694.38;;;10.14;83.13
36234;BME280;43467;50.890;5.982;2023-12-28T04:15:23;99700.59;;;10.13;83.28
36234;BME280;43467;50.890;5.982;2023-12-28T04:17:49;99710.47;;;10.10;83.50
36234;BME280;43467;50.890;5.982;2023-12-28T04:20:14;99709.63;;;10.09;83.59
36234;BME280;43467;50.890;5.982;2023-12-28T04:22:40;99697.31;;;10.08;83.32
36234;BME280;43467;50.890;5.982;2023-12-28T04:25:06;99694.84;;;10.05;83.26
36234;BME280;43467;50.890;5.982;2023-12-28T04:27:32;99701.84;;;10.06;83.38
36234;BME280;43467;50.890;5.982;2023-12-28T04:29:57;99701.84;;;10.06;83.35
36234;BME280;43467;50.890;5.982;2023-12-28T04:32:22;99707.03;;;10.08;82.86
36234;BME280;43467;50.890;5.982;2023-12-28T04:34:49;99705.25;;;10.08;83.24
36234;BME280;43467;50.890;5.982;2023-12-28T04:37:14;99702.00;;;10.03;83.26
36234;BME280;43467;50.890;5.982;2023-12-28T04:39:40;99716.00;;;10.05;83.39
36234;BME280;43467;50.890;5.982;2023-12-28T04:42:05;99709.47;;;10.12;82.90
36234;BME280;43467;50.890;5.982;2023-12-28T04:44:31;99718.56;;;10.07;83.26
36234;BME280;43467;50.890;5.982;2023-12-28T04:46:56;99714.97;;;10.08;83.59
36234;BME280;43467;50.890;5.982;2023-12-28T04:49:22;99711.56;;;10.06;83.33
36234;BME280;43467;50.890;5.982;2023-12-28T04:51:47;99720.03;;;10.12;82.90
36234;BME280;43467;50.890;5.982;2023-12-28T04:54:12;99709.06;;;10.03;83.26
36234;BME280;43467;50.890;5.982;2023-12-28T04:56:38;99725.78;;;10.03;83.31
36234;BME280;43467;50.890;5.982;2023-12-28T04:59:03;99733.50;;;10.08;82.98
36234;BME280;43467;50.890;5.982;2023-12-28T05:01:28;99733.50;;;10.08;82.78
36234;BME280;43467;50.890;5.982;2023-12-28T05:03:56;99743.16;;;10.09;82.98
36234;BME280;43467;50.890;5.982;2023-12-28T05:06:22;99737.94;;;10.07;83.02
36234;BME280;43467;50.890;5.982;2023-12-28T05:08:47;99731.72;;;10.08;82.76
36234;BME280;43467;50.890;5.982;2023-12-28T05:11:13;99731.47;;;10.13;82.44
36234;BME280;43467;50.890;5.982;2023-12-28T05:13:38;99753.50;;;10.13;82.44
36234;BME280;43467;50.890;5.982;2023-12-28T05:16:04;99748.22;;;10.13;82.21
36234;BME280;43467;50.890;5.982;2023-12-28T05:18:29;99756.72;;;10.20;81.96
36234;BME280;43467;50.890;5.982;2023-12-28T05:20:55;99757.34;;;10.25;81.65
36234;BME280;43467;50.890;5.982;2023-12-28T05:23:20;99776.94;;;10.21;81.77
36234;BME280;43467;50.890;5.982;2023-12-28T05:25:45;99772.34;;;10.24;81.71
36234;BME280;43467;50.890;5.982;2023-12-28T05:28:11;99779.19;;;10.29;81.40
36234;BME280;43467;50.890;5.982;2023-12-28T05:30:37;99768.53;;;10.30;81.25
36234;BME280;43467;50.890;5.982;2023-12-28T05:33:02;99778.97;;;10.33;81.04
36234;BME280;43467;50.890;5.982;2023-12-28T05:35:28;99778.03;;;10.34;80.76
36234;BME280;43467;50.890;5.982;2023-12-28T05:37:53;99771.81;;;10.35;80.64
36234;BME280;43467;50.890;5.982;2023-12-28T05:40:19;99782.13;;;10.40;80.39
36234;BME280;43467;50.890;5.982;2023-12-28T05:42:45;99772.88;;;10.31;80.80
36234;BME280;43467;50.890;5.982;2023-12-28T05:45:10;99778.97;;;10.33;80.68
36234;BME280;43467;50.890;5.982;2023-12-28T05:47:36;99766.66;;;10.32;80.61
36234;BME280;43467;50.890;5.982;2023-12-28T05:50:01;99772.13;;;10.29;80.45
36234;BME280;43467;50.890;5.982;2023-12-28T05:52:28;99774.47;;;10.35;80.12
36234;BME280;43467;50.890;5.982;2023-12-28T05:54:54;99769.16;;;10.35;80.19
36234;BME280;43467;50.890;5.982;2023-12-28T05:57:21;99767.28;;;10.37;80.18
36234;BME280;43467;50.890;5.982;2023-12-28T05:59:47;99772.03;;;10.31;80.07
36234;BME280;43467;50.890;5.982;2023-12-28T06:02:12;99775.78;;;10.27;79.93
36234;BME280;43467;50.890;5.982;2023-12-28T06:04:38;99765.91;;;10.30;79.90
36234;BME280;43467;50.890;5.982;2023-12-28T06:07:04;99772.97;;;10.30;79.73
36234;BME280;43467;50.890;5.982;2023-12-28T06:09:30;99781.78;;;10.30;79.53
36234;BME280;43467;50.890;5.982;2023-12-28T06:11:55;99762.09;;;10.18;79.61
36234;BME280;43467;50.890;5.982;2023-12-28T06:14:22;99781.13;;;10.25;79.49
36234;BME280;43467;50.890;5.982;2023-12-28T06:16:47;99765.34;;;10.23;79.60
36234;BME280;43467;50.890;5.982;2023-12-28T06:19:12;99776.59;;;10.27;79.50
36234;BME280;43467;50.890;5.982;2023-12-28T06:21:38;99766.75;;;10.31;79.29
36234;BME280;43467;50.890;5.982;2023-12-28T06:24:04;99771.19;;;10.30;79.20
36234;BME280;43467;50.890;5.982;2023-12-28T06:26:29;99781.31;;;10.22;79.28
36234;BME280;43467;50.890;5.982;2023-12-28T06:28:55;99776.09;;;10.20;79.27
36234;BME280;43467;50.890;5.982;2023-12-28T06:31:20;99788.38;;;10.21;79.44
36234;BME280;43467;50.890;5.982;2023-12-28T06:33:46;99790.34;;;10.18;79.50
36234;BME280;43467;50.890;5.982;2023-12-28T06:36:12;99788.63;;;10.17;79.67
36234;BME280;43467;50.890;5.982;2023-12-28T06:38:37;99790.53;;;10.13;79.69
36234;BME280;43467;50.890;5.982;2023-12-28T06:41:10;99786.09;;;10.14;79.70
36234;BME280;43467;50.890;5.982;2023-12-28T06:43:36;99792.97;;;10.18;79.54
36234;BME280;43467;50.890;5.982;2023-12-28T06:46:01;99804.63;;;10.14;79.82
36234;BME280;43467;50.890;5.982;2023-12-28T06:48:26;99791.41;;;10.14;79.64
36234;BME280;43467;50.890;5.982;2023-12-28T06:50:52;99799.47;;;10.11;79.87
36234;BME280;43467;50.890;5.982;2023-12-28T06:53:17;99802.91;;;10.13;79.60
36234;BME280;43467;50.890;5.982;2023-12-28T06:55:42;99799.41;;;10.12;79.59
36234;BME280;43467;50.890;5.982;2023-12-28T06:58:08;99802.03;;;10.12;79.69
36234;BME280;43467;50.890;5.982;2023-12-28T07:00:33;99814.28;;;10.15;79.57
36234;BME280;43467;50.890;5.982;2023-12-28T07:02:59;99814.91;;;10.20;79.47
36234;BME280;43467;50.890;5.982;2023-12-28T07:05:25;99807.19;;;10.15;79.48
36234;BME280;43467;50.890;5.982;2023-12-28T07:07:50;99810.53;;;10.19;79.14
36234;BME280;43467;50.890;5.982;2023-12-28T07:10:16;99823.47;;;10.25;79.00
36234;BME280;43467;50.890;5.982;2023-12-28T07:12:42;99829.16;;;10.17;79.41
36234;BME280;43467;50.890;5.982;2023-12-28T07:15:08;99829.91;;;10.19;79.34
36234;BME280;43467;50.890;5.982;2023-12-28T07:17:38;99829.47;;;10.29;79.02
36234;BME280;43467;50.890;5.982;2023-12-28T07:20:05;99833.72;;;10.31;79.07
36234;BME280;43467;50.890;5.982;2023-12-28T07:22:30;99836.94;;;10.38;78.45
36234;BME280;43467;50.890;5.982;2023-12-28T07:24:55;99832.28;;;10.43;78.26
36234;BME280;43467;50.890;5.982;2023-12-28T07:27:21;99832.97;;;10.46;78.09
36234;BME280;43467;50.890;5.982;2023-12-28T07:29:46;99838.88;;;10.51;77.95
36234;BME280;43467;50.890;5.982;2023-12-28T07:32:12;99844.94;;;10.53;77.76
36234;BME280;43467;50.890;5.982;2023-12-28T07:34:39;99838.78;;;10.53;77.67
36234;BME280;43467;50.890;5.982;2023-12-28T07:37:04;99847.75;;;10.50;77.78
36234;BME280;43467;50.890;5.982;2023-12-28T07:39:30;99858.97;;;10.55;77.58
36234;BME280;43467;50.890;5.982;2023-12-28T07:41:55;99844.31;;;10.48;77.43
36234;BME280;43467;50.890;5.982;2023-12-28T07:44:21;99840.75;;;10.49;77.73
36234;BME280;43467;50.890;5.982;2023-12-28T07:46:47;99864.28;;;10.55;77.62
36234;BME280;43467;50.890;5.982;2023-12-28T07:49:12;99849.72;;;10.47;77.47
36234;BME280;43467;50.890;5.982;2023-12-28T07:51:37;99864.28;;;10.55;77.26
36234;BME280;43467;50.890;5.982;2023-12-28T07:54:03;99863.19;;;10.59;77.02
36234;BME280;43467;50.890;5.982;2023-12-28T07:56:28;99871.59;;;10.50;77.26
36234;BME280;43467;50.890;5.982;2023-12-28T07:58:54;99875.94;;;10.51;77.32
36234;BME280;43467;50.890;5.982;2023-12-28T08:01:19;99875.31;;;10.46;77.41
36234;BME280;43467;50.890;5.982;2023-12-28T08:03:45;99881.94;;;10.55;77.16
36234;BME280;43467;50.890;5.982;2023-12-28T08:06:10;99895.06;;;10.56;76.95
36234;BME280;43467;50.890;5.982;2023-12-28T08:08:38;99892.44;;;10.56;77.07
36234;BME280;43467;50.890;5.982;2023-12-28T08:11:03;99890.47;;;10.60;76.84
36234;BME280;43467;50.890;5.982;2023-12-28T08:13:29;99895.53;;;10.64;76.58
36234;BME280;43467;50.890;5.982;2023-12-28T08:15:54;99888.56;;;10.63;76.41
36234;BME280;43467;50.890;5.982;2023-12-28T08:18:19;99884.94;;;10.64;76.57
36234;BME280;43467;50.890;5.982;2023-12-28T08:20:45;99886.59;;;10.67;76.57
36234;BME280;43467;50.890;5.982;2023-12-28T08:23:11;99876.94;;;10.66;76.49
36234;BME280;43467;50.890;5.982;2023-12-28T08:25:36;99882.94;;;10.69;76.35
36234;BME280;43467;50.890;5.982;2023-12-28T08:28:02;99896.84;;;10.73;76.22
36234;BME280;43467;50.890;5.982;2023-12-28T08:30:27;99897.66;;;10.58;76.30
36234;BME280;43467;50.890;5.982;2023-12-28T08:32:53;99899.91;;;10.65;76.52
36234;BME280;43467;50.890;5.982;2023-12-28T08:35:18;99904.44;;;10.63;76.43
36234;BME280;43467;50.890;5.982;2023-12-28T08:37:43;99910.91;;;10.75;75.77
36234;BME280;43467;50.890;5.982;2023-12-28T08:40:09;99908.31;;;10.73;75.52
36234;BME280;43467;50.890;5.982;2023-12-28T08:42:35;99918.97;;;10.72;75.72
36234;BME280;43467;50.890;5.982;2023-12-28T08:45:00;99894.53;;;10.67;75.47
36234;BME280;43467;50.890;5.982;2023-12-28T08:47:26;99920.78;;;10.71;75.69
36234;BME280;43467;50.890;5.982;2023-12-28T08:49:52;99918.03;;;10.73;75.39
36234;BME280;43467;50.890;5.982;2023-12-28T08:52:17;99917.06;;;10.76;75.36
36234;BME280;43467;50.890;5.982;2023-12-28T08:54:43;99913.31;;;10.80;75.35
36234;BME280;43467;50.890;5.982;2023-12-28T08:57:09;99921.00;;;10.84;75.40
36234;BME280;43467;50.890;5.982;2023-12-28T08:59:37;99925.47;;;10.84;75.16
36234;BME280;43467;50.890;5.982;2023-12-28T09:02:03;99906.28;;;10.79;74.98
36234;BME280;43467;50.890;5.982;2023-12-28T09:04:28;99920.63;;;10.92;75.18
36234;BME280;43467;50.890;5.982;2023-12-28T09:06:54;99914.59;;;10.88;74.95
36234;BME280;43467;50.890;5.982;2023-12-28T09:09:19;99901.94;;;10.78;75.32
36234;BME280;43467;50.890;5.982;2023-12-28T09:11:45;99913.53;;;10.75;75.54
36234;BME280;43467;50.890;5.982;2023-12-28T09:14:10;99914.00;;;10.83;75.13
36234;BME280;43467;50.890;5.982;2023-12-28T09:16:36;99906.81;;;10.85;75.32
36234;BME280;43467;50.890;5.982;2023-12-28T09:19:01;99906.50;;;10.91;75.15
36234;BME280;43467;50.890;5.982;2023-12-28T09:21:27;99919.34;;;10.99;74.81
36234;BME280;43467;50.890;5.982;2023-12-28T09:23:52;99920.75;;;11.06;74.42
36234;BME280;43467;50.890;5.982;2023-12-28T09:26:18;99925.63;;;11.13;74.05
36234;BME280;43467;50.890;5.982;2023-12-28T09:28:43;99925.09;;;11.07;74.13
36234;BME280;43467;50.890;5.982;2023-12-28T09:31:09;99927.69;;;11.08;73.97
36234;BME280;43467;50.890;5.982;2023-12-28T09:33:34;99935.28;;;11.14;73.91
36234;BME280;43467;50.890;5.982;2023-12-28T09:36:03;99924.47;;;11.19;73.83
36234;BME280;43467;50.890;5.982;2023-12-28T09:38:28;99924.53;;;11.17;73.75
36234;BME280;43467;50.890;5.982;2023-12-28T09:40:54;99919.59;;;11.27;73.55
36234;BME280;43467;50.890;5.982;2023-12-28T09:43:26;99940.28;;;11.21;73.85
36234;BME280;43467;50.890;5.982;2023-12-28T09:45:55;99916.56;;;11.17;73.65
36234;BME280;43467;50.890;5.982;2023-12-28T09:48:21;99924.28;;;11.22;73.56
36234;BME280;43467;50.890;5.982;2023-12-28T09:50:51;99915.34;;;11.25;73.34
36234;BME280;43467;50.890;5.982;2023-12-28T09:53:22;99915.47;;;11.22;73.45
36234;BME280;43467;50.890;5.982;2023-12-28T09:55:48;99915.34;;;11.25;73.28
36234;BME280;43467;50.890;5.982;2023-12-28T09:58:17;99917.28;;;11.21;72.92
36234;BME280;43467;50.890;5.982;2023-12-28T10:00:45;99899.25;;;11.28;72.38
36234;BME280;43467;50.890;5.982;2023-12-28T10:03:15;99902.44;;;11.34;72.64
36234;BME280;43467;50.890;5.982;2023-12-28T10:05:42;99897.72;;;11.24;72.45
36234;BME280;43467;50.890;5.982;2023-12-28T10:08:07;99912.34;;;11.31;72.17
36234;BME280;43467;50.890;5.982;2023-12-28T10:10:33;99905.09;;;11.34;72.28
36234;BME280;43467;50.890;5.982;2023-12-28T10:12:59;99914.06;;;11.32;71.70
36234;BME280;43467;50.890;5.982;2023-12-28T10:15:25;99918.34;;;11.34;71.28
36234;BME280;43467;50.890;5.982;2023-12-28T10:17:52;99923.97;;;11.28;71.34
36234;BME280;43467;50.890;5.982;2023-12-28T10:20:17;99916.03;;;11.28;71.48
36234;BME280;43467;50.890;5.982;2023-12-28T10:22:43;99922.69;;;11.35;71.70
36234;BME280;43467;50.890;5.982;2023-12-28T10:25:09;99921.09;;;11.48;71.32
36234;BME280;43467;50.890;5.982;2023-12-28T10:27:41;99918.59;;;11.45;70.71
36234;BME280;43467;50.890;5.982;2023-12-28T10:30:08;99919.22;;;11.50;70.94
36234;BME280;43467;50.890;5.982;2023-12-28T10:32:35;99940.09;;;11.56;70.47
36234;BME280;43467;50.890;5.982;2023-12-28T10:35:00;99935.91;;;11.52;70.60
36234;BME280;43467;50.890;5.982;2023-12-28T10:37:26;99933.16;;;11.54;70.29
36234;BME280;43467;50.890;5.982;2023-12-28T10:39:54;99959.84;;;11.51;70.33
36234;BME280;43467;50.890;5.982;2023-12-28T10:42:32;99923.09;;;11.60;69.91
36234;BME280;43467;50.890;5.982;2023-12-28T10:45:04;99904.53;;;11.60;69.86
36234;BME280;43467;50.890;5.982;2023-12-28T10:47:37;99930.19;;;11.60;69.87
36234;BME280;43467;50.890;5.982;2023-12-28T10:50:05;99916.50;;;11.52;70.10
36234;BME280;43467;50.890;5.982;2023-12-28T10:52:32;99915.03;;;11.62;70.03
36234;BME280;43467;50.890;5.982;2023-12-28T10:55:38;99920.34;;;11.62;69.61
36234;BME280;43467;50.890;5.982;2023-12-28T10:58:11;99932.41;;;11.68;69.71
36234;BME280;43467;50.890;5.982;2023-12-28T11:00:44;99928.47;;;11.59;70.05
36234;BME280;43467;50.890;5.982;2023-12-28T11:03:17;99921.97;;;11.64;69.89
36234;BME280;43467;50.890;5.982;2023-12-28T11:05:45;99909.94;;;11.75;69.88
36234;BME280;43467;50.890;5.982;2023-12-28T11:08:12;99922.38;;;11.90;69.42
36234;BME280;43467;50.890;5.982;2023-12-28T11:10:40;99906.47;;;11.90;69.27
36234;BME280;43467;50.890;5.982;2023-12-28T11:13:06;99911.75;;;11.90;68.87
36234;BME280;43467;50.890;5.982;2023-12-28T11:15:33;99906.34;;;11.91;69.26
36234;BME280;43467;50.890;5.982;2023-12-28T11:18:00;99907.66;;;11.84;69.44
36234;BME280;43467;50.890;5.982;2023-12-28T11:20:25;99919.63;;;11.91;69.36
36234;BME280;43467;50.890;5.982;2023-12-28T11:22:51;99907.03;;;11.95;68.92
36234;BME280;43467;50.890;5.982;2023-12-28T11:25:18;99910.09;;;12.03;68.42
36234;BME280;43467;50.890;5.982;2023-12-28T11:27:45;99892.91;;;11.94;68.38
36234;BME280;43467;50.890;5.982;2023-12-28T11:30:11;99907.00;;;12.10;68.68
36234;BME280;43467;50.890;5.982;2023-12-28T11:32:38;99898.47;;;12.05;68.49
36234;BME280;43467;50.890;5.982;2023-12-28T11:35:07;99897.81;;;12.02;68.61
36234;BME280;43467;50.890;5.982;2023-12-28T11:37:36;99897.81;;;12.02;68.26
36234;BME280;43467;50.890;5.982;2023-12-28T11:40:11;99896.16;;;11.99;68.37
36234;BME280;43467;50.890;5.982;2023-12-28T11:42:47;99904.97;;;12.00;67.95
36234;BME280;43467;50.890;5.982;2023-12-28T11:45:16;99896.28;;;11.98;68.07
36234;BME280;43467;50.890;5.982;2023-12-28T11:47:41;99902.66;;;12.09;68.31
36234;BME280;43467;50.890;5.982;2023-12-28T11:50:08;99899.50;;;12.03;67.89
36234;BME280;43467;50.890;5.982;2023-12-28T11:52:33;99887.25;;;12.00;68.03
36234;BME280;43467;50.890;5.982;2023-12-28T11:54:59;99895.91;;;12.04;67.86
36234;BME280;43467;50.890;5.982;2023-12-28T11:57:25;99882.63;;;12.04;67.40
36234;BME280;43467;50.890;5.982;2023-12-28T11:59:58;99886.91;;;12.06;67.23
36234;BME280;43467;50.890;5.982;2023-12-28T12:02:25;99875.28;;;12.09;67.51
36234;BME280;43467;50.890;5.982;2023-12-28T12:04:51;99872.44;;;12.12;67.36
36234;BME280;43467;50.890;5.982;2023-12-28T12:07:17;99885.09;;;12.07;67.09
36234;BME280;43467;50.890;5.982;2023-12-28T12:09:43;99862.94;;;12.08;67.43
36234;BME280;43467;50.890;5.982;2023-12-28T12:12:08;99864.91;;;12.04;67.06
36234;BME280;43467;50.890;5.982;2023-12-28T12:14:34;99865.78;;;12.05;67.42
36234;BME280;43467;50.890;5.982;2023-12-28T12:17:00;99869.78;;;12.12;67.27
36234;BME280;43467;50.890;5.982;2023-12-28T12:19:26;99858.63;;;12.21;67.27
36234;BME280;43467;50.890;5.982;2023-12-28T12:21:53;99854.63;;;12.14;66.82
36234;BME280;43467;50.890;5.982;2023-12-28T12:24:19;99851.84;;;12.01;67.43
36234;BME280;43467;50.890;5.982;2023-12-28T12:26:48;99851.56;;;12.06;67.10
36234;BME280;43467;50.890;5.982;2023-12-28T12:29:14;99860.47;;;12.05;67.01
36234;BME280;43467;50.890;5.982;2023-12-28T12:31:39;99867.06;;;12.14;66.92
36234;BME280;43467;50.890;5.982;2023-12-28T12:34:10;99837.34;;;12.07;66.64
36234;BME280;43467;50.890;5.982;2023-12-28T12:36:36;99787.84;;;11.92;66.17
36234;BME280;43467;50.890;5.982;2023-12-28T12:39:03;99785.56;;;11.86;66.27
36234;BME280;43467;50.890;5.982;2023-12-28T12:41:34;99783.91;;;11.83;66.52
36234;BME280;43467;50.890;5.982;2023-12-28T12:43:59;99810.25;;;12.02;66.49
36234;BME280;43467;50.890;5.982;2023-12-28T12:46:26;99837.06;;;12.11;66.46
36234;BME280;43467;50.890;5.982;2023-12-28T12:49:00;99837.53;;;12.04;66.21
36234;BME280;43467;50.890;5.982;2023-12-28T12:51:28;99835.50;;;12.23;65.97
36234;BME280;43467;50.890;5.982;2023-12-28T12:53:57;99762.63;;;11.85;65.95
36234;BME280;43467;50.890;5.982;2023-12-28T12:56:24;99820.41;;;12.09;64.99
36234;BME280;43467;50.890;5.982;2023-12-28T12:58:50;99799.25;;;12.08;65.22
36234;BME280;43467;50.890;5.982;2023-12-28T13:01:15;99708.56;;;11.56;65.26